sensor_id;sensor_type;location;lat;lon;timestamp;P1;durP1;ratioP1;P2;durP2;ratioP2
9214;SDS011;4642;51.364;6.788;2023-10-31T00:00:43;6.47;;;5.87;;
9214;SDS011;4642;51.364;6.788;2023-10-31T00:03:09;6.20;;;5.60;;
9214;SDS011;4642;51.364;6.788;2023-10-31T00:05:35;7.07;;;6.43;;
9214;SDS011;4642;51.364;6.788;2023-10-31T00:08:01;6.73;;;6.13;;
9214;SDS011;4642;51.364;6.788;2023-10-31T00:10:26;6.27;;;5.20;;
9214;SDS011;4642;51.364;6.788;2023-10-31T00:12:52;5.47;;;4.97;;
9214;SDS011;4642;51.364;6.788;2023-10-31T00:15:17;5.20;;;4.80;;
9214;SDS011;4642;51.364;6.788;2023-10-31T00:17:43;6.13;;;4.03;;
9214;SDS011;4642;51.364;6.788;2023-10-31T00:20:08;4.30;;;4.00;;
9214;SDS011;4642;51.364;6.788;2023-10-31T00:22:34;3.00;;;2.70;;
9214;SDS011;4642;51.364;6.788;2023-10-31T00:25:00;2.80;;;2.60;;
9214;SDS011;4642;51.364;6.788;2023-10-31T00:27:25;2.77;;;2.10;;
9214;SDS011;4642;51.364;6.788;2023-10-31T00:29:51;1.97;;;1.77;;
9214;SDS011;4642;51.364;6.788;2023-10-31T00:32:16;2.13;;;1.93;;
9214;SDS011;4642;51.364;6.788;2023-10-31T00:34:42;2.30;;;2.10;;
9214;SDS011;4642;51.364;6.788;2023-10-31T00:37:07;1.60;;;1.30;;
9214;SDS011;4642;51.364;6.788;2023-10-31T00:39:33;2.47;;;1.23;;
9214;SDS011;4642;51.364;6.788;2023-10-31T00:41:59;3.17;;;1.80;;
9214;SDS011;4642;51.364;6.788;2023-10-31T00:44:24;2.07;;;1.70;;
9214;SDS011;4642;51.364;6.788;2023-10-31T00:46:50;2.57;;;2.00;;
9214;SDS011;4642;51.364;6.788;2023-10-31T00:49:16;3.53;;;2.30;;
9214;SDS011;4642;51.364;6.788;2023-10-31T00:51:41;4.13;;;2.47;;
9214;SDS011;4642;51.364;6.788;2023-10-31T00:54:07;2.57;;;2.37;;
9214;SDS011;4642;51.364;6.788;2023-10-31T00:56:32;3.23;;;2.73;;
9214;SDS011;4642;51.364;6.788;2023-10-31T00:58:59;4.03;;;2.77;;
9214;SDS011;4642;51.364;6.788;2023-10-31T01:01:25;6.30;;;3.27;;
9214;SDS011;4642;51.364;6.788;2023-10-31T01:03:50;4.03;;;3.53;;
9214;SDS011;4642;51.364;6.788;2023-10-31T01:06:16;4.63;;;3.50;;
9214;SDS011;4642;51.364;6.788;2023-10-31T01:08:41;4.77;;;4.37;;
9214;SDS011;4642;51.364;6.788;2023-10-31T01:11:07;7.10;;;4.97;;
9214;SDS011;4642;51.364;6.788;2023-10-31T01:13:32;5.83;;;5.30;;
9214;SDS011;4642;51.364;6.788;2023-10-31T01:15:58;9.47;;;5.60;;
9214;SDS011;4642;51.364;6.788;2023-10-31T01:18:23;6.90;;;5.70;;
9214;SDS011;4642;51.364;6.788;2023-10-31T01:20:49;6.87;;;6.20;;
9214;SDS011;4642;51.364;6.788;2023-10-31T01:23:14;6.23;;;5.30;;
9214;SDS011;4642;51.364;6.788;2023-10-31T01:25:40;7.00;;;5.33;;
9214;SDS011;4642;51.364;6.788;2023-10-31T01:28:06;7.40;;;5.03;;
9214;SDS011;4642;51.364;6.788;2023-10-31T01:30:31;5.37;;;4.87;;
9214;SDS011;4642;51.364;6.788;2023-10-31T01:32:58;6.27;;;4.80;;
9214;SDS011;4642;51.364;6.788;2023-10-31T01:35:23;5.73;;;4.73;;
9214;SDS011;4642;51.364;6.788;2023-10-31T01:37:49;5.50;;;4.83;;
9214;SDS011;4642;51.364;6.788;2023-10-31T01:40:14;6.07;;;4.63;;
9214;SDS011;4642;51.364;6.788;2023-10-31T01:42:40;4.80;;;4.30;;
9214;SDS011;4642;51.364;6.788;2023-10-31T01:45:06;7.53;;;4.93;;
9214;SDS011;4642;51.364;6.788;2023-10-31T01:47:33;4.77;;;4.27;;
9214;SDS011;4642;51.364;6.788;2023-10-31T01:49:58;8.00;;;4.97;;
9214;SDS011;4642;51.364;6.788;2023-10-31T01:52:24;7.40;;;4.33;;
9214;SDS011;4642;51.364;6.788;2023-10-31T01:54:50;6.60;;;4.30;;
9214;SDS011;4642;51.364;6.788;2023-10-31T01:57:16;4.20;;;3.80;;
9214;SDS011;4642;51.364;6.788;2023-10-31T01:59:44;7.63;;;4.60;;
9214;SDS011;4642;51.364;6.788;2023-10-31T02:02:10;6.13;;;4.27;;
9214;SDS011;4642;51.364;6.788;2023-10-31T02:04:35;5.63;;;4.83;;
9214;SDS011;4642;51.364;6.788;2023-10-31T02:07:01;8.63;;;5.83;;
9214;SDS011;4642;51.364;6.788;2023-10-31T02:09:26;11.10;;;5.40;;
9214;SDS011;4642;51.364;6.788;2023-10-31T02:11:54;12.73;;;6.07;;
9214;SDS011;4642;51.364;6.788;2023-10-31T02:14:21;8.97;;;6.13;;
9214;SDS011;4642;51.364;6.788;2023-10-31T02:16:47;6.90;;;5.60;;
9214;SDS011;4642;51.364;6.788;2023-10-31T02:19:12;8.93;;;5.50;;
9214;SDS011;4642;51.364;6.788;2023-10-31T02:21:43;7.57;;;5.67;;
9214;SDS011;4642;51.364;6.788;2023-10-31T02:24:09;8.17;;;5.60;;
9214;SDS011;4642;51.364;6.788;2023-10-31T02:26:35;10.87;;;6.27;;
9214;SDS011;4642;51.364;6.788;2023-10-31T02:29:00;8.00;;;6.27;;
9214;SDS011;4642;51.364;6.788;2023-10-31T02:31:26;9.67;;;6.07;;
9214;SDS011;4642;51.364;6.788;2023-10-31T02:33:52;8.57;;;6.80;;
9214;SDS011;4642;51.364;6.788;2023-10-31T02:36:18;9.17;;;6.40;;
9214;SDS011;4642;51.364;6.788;2023-10-31T02:38:44;11.70;;;6.63;;
9214;SDS011;4642;51.364;6.788;2023-10-31T02:41:10;11.70;;;7.23;;
9214;SDS011;4642;51.364;6.788;2023-10-31T02:43:37;11.00;;;6.57;;
9214;SDS011;4642;51.364;6.788;2023-10-31T02:46:03;12.50;;;7.07;;
9214;SDS011;4642;51.364;6.788;2023-10-31T02:48:28;9.27;;;6.57;;
9214;SDS011;4642;51.364;6.788;2023-10-31T02:50:56;10.70;;;6.77;;
9214;SDS011;4642;51.364;6.788;2023-10-31T02:53:22;8.20;;;6.20;;
9214;SDS011;4642;51.364;6.788;2023-10-31T02:55:48;9.73;;;6.70;;
9214;SDS011;4642;51.364;6.788;2023-10-31T02:58:14;9.27;;;6.00;;
9214;SDS011;4642;51.364;6.788;2023-10-31T03:00:39;9.60;;;6.40;;
9214;SDS011;4642;51.364;6.788;2023-10-31T03:03:05;12.00;;;7.40;;
9214;SDS011;4642;51.364;6.788;2023-10-31T03:05:30;9.80;;;6.67;;
9214;SDS011;4642;51.364;6.788;2023-10-31T03:07:56;9.53;;;6.77;;
9214;SDS011;4642;51.364;6.788;2023-10-31T03:10:22;10.03;;;6.80;;
9214;SDS011;4642;51.364;6.788;2023-10-31T03:12:47;10.47;;;7.13;;
9214;SDS011;4642;51.364;6.788;2023-10-31T03:15:13;10.63;;;7.17;;
9214;SDS011;4642;51.364;6.788;2023-10-31T03:17:39;12.27;;;7.27;;
9214;SDS011;4642;51.364;6.788;2023-10-31T03:20:04;11.97;;;7.63;;
9214;SDS011;4642;51.364;6.788;2023-10-31T03:22:30;12.13;;;7.43;;
9214;SDS011;4642;51.364;6.788;2023-10-31T03:24:56;12.93;;;8.10;;
9214;SDS011;4642;51.364;6.788;2023-10-31T03:27:22;9.60;;;7.37;;
9214;SDS011;4642;51.364;6.788;2023-10-31T03:29:47;10.63;;;7.50;;
9214;SDS011;4642;51.364;6.788;2023-10-31T03:32:14;13.73;;;7.97;;
9214;SDS011;4642;51.364;6.788;2023-10-31T03:34:40;13.13;;;7.87;;
9214;SDS011;4642;51.364;6.788;2023-10-31T03:37:05;11.00;;;7.27;;
9214;SDS011;4642;51.364;6.788;2023-10-31T03:39:31;11.17;;;8.00;;
9214;SDS011;4642;51.364;6.788;2023-10-31T03:41:56;10.57;;;7.67;;
9214;SDS011;4642;51.364;6.788;2023-10-31T03:44:22;11.73;;;8.40;;
9214;SDS011;4642;51.364;6.788;2023-10-31T03:46:47;14.80;;;9.43;;
9214;SDS011;4642;51.364;6.788;2023-10-31T03:49:13;11.00;;;8.20;;
9214;SDS011;4642;51.364;6.788;2023-10-31T03:51:39;12.23;;;8.23;;
9214;SDS011;4642;51.364;6.788;2023-10-31T03:54:04;13.40;;;8.80;;
9214;SDS011;4642;51.364;6.788;2023-10-31T03:56:30;12.73;;;8.57;;
9214;SDS011;4642;51.364;6.788;2023-10-31T03:58:55;11.37;;;9.03;;
9214;SDS011;4642;51.364;6.788;2023-10-31T04:01:21;13.13;;;9.20;;
9214;SDS011;4642;51.364;6.788;2023-10-31T04:03:46;10.93;;;9.23;;
9214;SDS011;4642;51.364;6.788;2023-10-31T04:06:12;12.10;;;9.33;;
9214;SDS011;4642;51.364;6.788;2023-10-31T04:08:37;13.57;;;10.03;;
9214;SDS011;4642;51.364;6.788;2023-10-31T04:11:03;14.33;;;9.47;;
9214;SDS011;4642;51.364;6.788;2023-10-31T04:13:29;10.60;;;8.17;;
9214;SDS011;4642;51.364;6.788;2023-10-31T04:15:54;12.73;;;8.80;;
9214;SDS011;4642;51.364;6.788;2023-10-31T04:18:20;12.40;;;9.03;;
9214;SDS011;4642;51.364;6.788;2023-10-31T04:20:45;13.70;;;8.93;;
9214;SDS011;4642;51.364;6.788;2023-10-31T04:23:11;10.63;;;8.40;;
9214;SDS011;4642;51.364;6.788;2023-10-31T04:25:37;12.50;;;8.40;;
9214;SDS011;4642;51.364;6.788;2023-10-31T04:28:02;11.37;;;9.40;;
9214;SDS011;4642;51.364;6.788;2023-10-31T04:30:28;12.70;;;8.93;;
9214;SDS011;4642;51.364;6.788;2023-10-31T04:32:54;12.00;;;9.47;;
9214;SDS011;4642;51.364;6.788;2023-10-31T04:35:19;12.07;;;8.50;;
9214;SDS011;4642;51.364;6.788;2023-10-31T04:37:45;12.93;;;8.50;;
9214;SDS011;4642;51.364;6.788;2023-10-31T04:40:11;10.83;;;8.80;;
9214;SDS011;4642;51.364;6.788;2023-10-31T04:42:38;12.93;;;9.17;;
9214;SDS011;4642;51.364;6.788;2023-10-31T04:45:08;13.10;;;8.70;;
9214;SDS011;4642;51.364;6.788;2023-10-31T04:47:34;12.30;;;9.17;;
9214;SDS011;4642;51.364;6.788;2023-10-31T04:50:00;9.83;;;8.23;;
9214;SDS011;4642;51.364;6.788;2023-10-31T04:52:25;12.20;;;8.90;;
9214;SDS011;4642;51.364;6.788;2023-10-31T04:54:51;10.60;;;8.70;;
9214;SDS011;4642;51.364;6.788;2023-10-31T04:57:17;13.33;;;8.60;;
9214;SDS011;4642;51.364;6.788;2023-10-31T04:59:42;10.97;;;8.83;;
9214;SDS011;4642;51.364;6.788;2023-10-31T05:02:08;14.47;;;9.33;;
9214;SDS011;4642;51.364;6.788;2023-10-31T05:04:33;13.67;;;8.83;;
9214;SDS011;4642;51.364;6.788;2023-10-31T05:07:02;12.57;;;8.70;;
9214;SDS011;4642;51.364;6.788;2023-10-31T05:09:28;10.10;;;8.80;;
9214;SDS011;4642;51.364;6.788;2023-10-31T05:11:53;13.50;;;9.07;;
9214;SDS011;4642;51.364;6.788;2023-10-31T05:14:19;13.17;;;8.37;;
9214;SDS011;4642;51.364;6.788;2023-10-31T05:16:45;12.53;;;9.53;;
9214;SDS011;4642;51.364;6.788;2023-10-31T05:19:10;12.17;;;9.47;;
9214;SDS011;4642;51.364;6.788;2023-10-31T05:21:36;12.70;;;9.47;;
9214;SDS011;4642;51.364;6.788;2023-10-31T05:24:02;13.73;;;9.17;;
9214;SDS011;4642;51.364;6.788;2023-10-31T05:26:27;11.57;;;9.10;;
9214;SDS011;4642;51.364;6.788;2023-10-31T05:28:54;12.63;;;9.23;;
9214;SDS011;4642;51.364;6.788;2023-10-31T05:31:21;11.03;;;9.03;;
9214;SDS011;4642;51.364;6.788;2023-10-31T05:33:47;11.50;;;9.03;;
9214;SDS011;4642;51.364;6.788;2023-10-31T05:36:23;11.20;;;8.43;;
9214;SDS011;4642;51.364;6.788;2023-10-31T05:38:49;10.20;;;7.83;;
9214;SDS011;4642;51.364;6.788;2023-10-31T05:41:15;10.17;;;8.63;;
9214;SDS011;4642;51.364;6.788;2023-10-31T05:43:41;9.53;;;7.90;;
9214;SDS011;4642;51.364;6.788;2023-10-31T05:46:06;8.77;;;7.40;;
9214;SDS011;4642;51.364;6.788;2023-10-31T05:48:36;9.77;;;7.77;;
9214;SDS011;4642;51.364;6.788;2023-10-31T05:51:12;8.37;;;7.47;;
9214;SDS011;4642;51.364;6.788;2023-10-31T05:53:42;7.83;;;7.10;;
9214;SDS011;4642;51.364;6.788;2023-10-31T05:56:11;10.60;;;7.50;;
9214;SDS011;4642;51.364;6.788;2023-10-31T05:58:37;11.87;;;7.37;;
9214;SDS011;4642;51.364;6.788;2023-10-31T06:01:04;13.63;;;7.37;;
9214;SDS011;4642;51.364;6.788;2023-10-31T06:03:33;7.87;;;7.07;;
9214;SDS011;4642;51.364;6.788;2023-10-31T06:05:59;7.77;;;6.97;;
9214;SDS011;4642;51.364;6.788;2023-10-31T06:08:24;10.27;;;7.77;;
9214;SDS011;4642;51.364;6.788;2023-10-31T06:10:53;9.13;;;7.70;;
9214;SDS011;4642;51.364;6.788;2023-10-31T06:13:19;10.13;;;7.50;;
9214;SDS011;4642;51.364;6.788;2023-10-31T06:15:44;8.90;;;7.70;;
9214;SDS011;4642;51.364;6.788;2023-10-31T06:18:10;9.97;;;7.77;;
9214;SDS011;4642;51.364;6.788;2023-10-31T06:20:36;10.73;;;7.90;;
9214;SDS011;4642;51.364;6.788;2023-10-31T06:23:01;11.57;;;7.83;;
9214;SDS011;4642;51.364;6.788;2023-10-31T06:25:30;10.00;;;8.53;;
9214;SDS011;4642;51.364;6.788;2023-10-31T06:27:55;9.20;;;8.30;;
9214;SDS011;4642;51.364;6.788;2023-10-31T06:30:21;11.73;;;8.50;;
9214;SDS011;4642;51.364;6.788;2023-10-31T06:32:46;9.47;;;8.47;;
9214;SDS011;4642;51.364;6.788;2023-10-31T06:35:12;11.73;;;9.07;;
9214;SDS011;4642;51.364;6.788;2023-10-31T06:37:38;11.00;;;8.83;;
9214;SDS011;4642;51.364;6.788;2023-10-31T06:40:03;12.83;;;9.63;;
9214;SDS011;4642;51.364;6.788;2023-10-31T06:42:30;11.87;;;9.67;;
9214;SDS011;4642;51.364;6.788;2023-10-31T06:44:56;11.93;;;9.73;;
9214;SDS011;4642;51.364;6.788;2023-10-31T06:47:21;10.23;;;8.90;;
9214;SDS011;4642;51.364;6.788;2023-10-31T06:49:47;11.27;;;9.37;;
9214;SDS011;4642;51.364;6.788;2023-10-31T06:52:13;12.43;;;10.13;;
9214;SDS011;4642;51.364;6.788;2023-10-31T06:54:38;12.77;;;10.33;;
9214;SDS011;4642;51.364;6.788;2023-10-31T06:57:04;15.87;;;10.70;;
9214;SDS011;4642;51.364;6.788;2023-10-31T06:59:29;12.33;;;10.40;;
9214;SDS011;4642;51.364;6.788;2023-10-31T07:01:55;15.43;;;10.90;;
9214;SDS011;4642;51.364;6.788;2023-10-31T07:04:20;12.97;;;10.30;;
9214;SDS011;4642;51.364;6.788;2023-10-31T07:06:46;14.77;;;11.03;;
9214;SDS011;4642;51.364;6.788;2023-10-31T07:09:12;15.97;;;10.80;;
9214;SDS011;4642;51.364;6.788;2023-10-31T07:11:37;13.77;;;11.53;;
9214;SDS011;4642;51.364;6.788;2023-10-31T07:14:03;12.53;;;10.93;;
9214;SDS011;4642;51.364;6.788;2023-10-31T07:16:29;15.23;;;11.57;;
9214;SDS011;4642;51.364;6.788;2023-10-31T07:18:55;14.40;;;11.77;;
9214;SDS011;4642;51.364;6.788;2023-10-31T07:21:20;15.17;;;11.97;;
9214;SDS011;4642;51.364;6.788;2023-10-31T07:23:46;13.10;;;11.83;;
9214;SDS011;4642;51.364;6.788;2023-10-31T07:26:11;13.00;;;11.60;;
9214;SDS011;4642;51.364;6.788;2023-10-31T07:28:37;13.87;;;11.30;;
9214;SDS011;4642;51.364;6.788;2023-10-31T07:31:03;16.13;;;11.47;;
9214;SDS011;4642;51.364;6.788;2023-10-31T07:33:29;16.50;;;10.93;;
9214;SDS011;4642;51.364;6.788;2023-10-31T07:35:55;13.87;;;11.20;;
9214;SDS011;4642;51.364;6.788;2023-10-31T07:38:20;14.90;;;11.20;;
9214;SDS011;4642;51.364;6.788;2023-10-31T07:40:46;14.63;;;11.83;;
9214;SDS011;4642;51.364;6.788;2023-10-31T07:43:13;13.70;;;12.17;;
9214;SDS011;4642;51.364;6.788;2023-10-31T07:45:38;16.40;;;12.23;;
9214;SDS011;4642;51.364;6.788;2023-10-31T07:48:04;12.17;;;10.97;;
9214;SDS011;4642;51.364;6.788;2023-10-31T07:50:29;13.93;;;12.53;;
9214;SDS011;4642;51.364;6.788;2023-10-31T07:52:56;15.67;;;12.47;;
9214;SDS011;4642;51.364;6.788;2023-10-31T07:55:21;15.10;;;12.47;;
9214;SDS011;4642;51.364;6.788;2023-10-31T07:57:47;14.63;;;13.00;;
9214;SDS011;4642;51.364;6.788;2023-10-31T08:00:13;14.63;;;12.57;;
9214;SDS011;4642;51.364;6.788;2023-10-31T08:02:38;14.13;;;12.53;;
9214;SDS011;4642;51.364;6.788;2023-10-31T08:05:04;17.37;;;12.97;;
9214;SDS011;4642;51.364;6.788;2023-10-31T08:07:30;20.37;;;13.20;;
9214;SDS011;4642;51.364;6.788;2023-10-31T08:09:56;14.43;;;11.83;;
9214;SDS011;4642;51.364;6.788;2023-10-31T08:12:22;12.50;;;11.30;;
9214;SDS011;4642;51.364;6.788;2023-10-31T08:14:48;12.97;;;10.50;;
9214;SDS011;4642;51.364;6.788;2023-10-31T08:17:13;12.60;;;10.13;;
9214;SDS011;4642;51.364;6.788;2023-10-31T08:19:39;10.90;;;9.80;;
9214;SDS011;4642;51.364;6.788;2023-10-31T08:22:04;12.10;;;9.60;;
9214;SDS011;4642;51.364;6.788;2023-10-31T08:24:30;12.17;;;8.73;;
9214;SDS011;4642;51.364;6.788;2023-10-31T08:26:56;14.17;;;8.93;;
9214;SDS011;4642;51.364;6.788;2023-10-31T08:29:21;9.50;;;8.60;;
9214;SDS011;4642;51.364;6.788;2023-10-31T08:31:47;10.13;;;8.47;;
9214;SDS011;4642;51.364;6.788;2023-10-31T08:34:12;9.57;;;7.20;;
9214;SDS011;4642;51.364;6.788;2023-10-31T08:36:38;10.07;;;7.23;;
9214;SDS011;4642;51.364;6.788;2023-10-31T08:39:04;9.17;;;6.83;;
9214;SDS011;4642;51.364;6.788;2023-10-31T08:41:29;8.23;;;7.07;;
9214;SDS011;4642;51.364;6.788;2023-10-31T08:43:55;7.20;;;6.50;;
9214;SDS011;4642;51.364;6.788;2023-10-31T08:46:20;8.27;;;6.57;;
9214;SDS011;4642;51.364;6.788;2023-10-31T08:48:47;8.37;;;6.80;;
9214;SDS011;4642;51.364;6.788;2023-10-31T08:51:12;6.77;;;6.00;;
9214;SDS011;4642;51.364;6.788;2023-10-31T08:53:38;8.10;;;6.23;;
9214;SDS011;4642;51.364;6.788;2023-10-31T08:56:03;11.20;;;6.63;;
9214;SDS011;4642;51.364;6.788;2023-10-31T08:58:29;7.47;;;6.27;;
9214;SDS011;4642;51.364;6.788;2023-10-31T09:00:55;7.90;;;5.83;;
9214;SDS011;4642;51.364;6.788;2023-10-31T09:03:20;6.33;;;5.80;;
9214;SDS011;4642;51.364;6.788;2023-10-31T09:05:46;7.73;;;5.90;;
9214;SDS011;4642;51.364;6.788;2023-10-31T09:08:11;7.57;;;6.47;;
9214;SDS011;4642;51.364;6.788;2023-10-31T09:10:37;8.57;;;6.20;;
9214;SDS011;4642;51.364;6.788;2023-10-31T09:13:07;8.87;;;6.83;;
9214;SDS011;4642;51.364;6.788;2023-10-31T09:15:34;7.57;;;6.27;;
9214;SDS011;4642;51.364;6.788;2023-10-31T09:18:01;7.93;;;6.53;;
9214;SDS011;4642;51.364;6.788;2023-10-31T09:20:27;7.73;;;6.43;;
9214;SDS011;4642;51.364;6.788;2023-10-31T09:22:54;7.37;;;6.40;;
9214;SDS011;4642;51.364;6.788;2023-10-31T09:25:20;8.00;;;6.47;;
9214;SDS011;4642;51.364;6.788;2023-10-31T09:27:45;7.63;;;6.47;;
9214;SDS011;4642;51.364;6.788;2023-10-31T09:30:11;8.63;;;6.97;;
9214;SDS011;4642;51.364;6.788;2023-10-31T09:32:36;6.70;;;6.00;;
9214;SDS011;4642;51.364;6.788;2023-10-31T09:35:02;9.03;;;6.67;;
9214;SDS011;4642;51.364;6.788;2023-10-31T09:37:28;7.67;;;6.20;;
9214;SDS011;4642;51.364;6.788;2023-10-31T09:39:53;7.27;;;6.57;;
9214;SDS011;4642;51.364;6.788;2023-10-31T09:42:19;9.10;;;7.67;;
9214;SDS011;4642;51.364;6.788;2023-10-31T09:44:44;11.00;;;7.83;;
9214;SDS011;4642;51.364;6.788;2023-10-31T09:47:10;10.90;;;7.63;;
9214;SDS011;4642;51.364;6.788;2023-10-31T09:49:37;8.87;;;7.97;;
9214;SDS011;4642;51.364;6.788;2023-10-31T09:52:02;8.87;;;7.97;;
9214;SDS011;4642;51.364;6.788;2023-10-31T09:54:28;8.87;;;7.93;;
9214;SDS011;4642;51.364;6.788;2023-10-31T09:56:55;9.93;;;7.20;;
9214;SDS011;4642;51.364;6.788;2023-10-31T09:59:20;9.10;;;7.00;;
9214;SDS011;4642;51.364;6.788;2023-10-31T10:01:46;13.67;;;7.00;;
9214;SDS011;4642;51.364;6.788;2023-10-31T10:04:11;9.83;;;6.67;;
9214;SDS011;4642;51.364;6.788;2023-10-31T10:06:49;9.40;;;6.83;;
9214;SDS011;4642;51.364;6.788;2023-10-31T10:09:27;10.27;;;6.77;;
9214;SDS011;4642;51.364;6.788;2023-10-31T10:11:53;8.20;;;6.27;;
9214;SDS011;4642;51.364;6.788;2023-10-31T10:14:20;7.50;;;6.70;;
9214;SDS011;4642;51.364;6.788;2023-10-31T10:16:47;11.37;;;6.77;;
9214;SDS011;4642;51.364;6.788;2023-10-31T10:19:20;10.50;;;7.20;;
9214;SDS011;4642;51.364;6.788;2023-10-31T10:21:50;9.97;;;6.17;;
9214;SDS011;4642;51.364;6.788;2023-10-31T10:24:17;10.83;;;6.20;;
9214;SDS011;4642;51.364;6.788;2023-10-31T10:26:44;8.87;;;5.83;;
9214;SDS011;4642;51.364;6.788;2023-10-31T10:29:10;7.47;;;5.97;;
9214;SDS011;4642;51.364;6.788;2023-10-31T10:31:35;9.13;;;5.40;;
9214;SDS011;4642;51.364;6.788;2023-10-31T10:34:01;9.57;;;5.57;;
9214;SDS011;4642;51.364;6.788;2023-10-31T10:36:26;8.57;;;4.90;;
9214;SDS011;4642;51.364;6.788;2023-10-31T10:38:56;7.50;;;5.10;;
9214;SDS011;4642;51.364;6.788;2023-10-31T10:41:28;6.20;;;4.63;;
9214;SDS011;4642;51.364;6.788;2023-10-31T10:44:12;5.23;;;3.70;;
9214;SDS011;4642;51.364;6.788;2023-10-31T10:46:39;6.30;;;3.97;;
9214;SDS011;4642;51.364;6.788;2023-10-31T10:49:06;6.37;;;3.40;;
9214;SDS011;4642;51.364;6.788;2023-10-31T10:51:52;7.07;;;3.80;;
9214;SDS011;4642;51.364;6.788;2023-10-31T10:55:07;7.37;;;4.00;;
9214;SDS011;4642;51.364;6.788;2023-10-31T10:57:20;8.17;;;3.70;;
9214;SDS011;4642;51.364;6.788;2023-10-31T11:00:03;5.73;;;3.67;;
9214;SDS011;4642;51.364;6.788;2023-10-31T11:02:33;7.07;;;3.53;;
9214;SDS011;4642;51.364;6.788;2023-10-31T11:05:01;7.50;;;3.30;;
9214;SDS011;4642;51.364;6.788;2023-10-31T11:07:29;5.13;;;3.80;;
9214;SDS011;4642;51.364;6.788;2023-10-31T11:09:57;6.93;;;3.20;;
9214;SDS011;4642;51.364;6.788;2023-10-31T11:12:27;8.40;;;3.17;;
9214;SDS011;4642;51.364;6.788;2023-10-31T11:14:54;7.17;;;3.00;;
9214;SDS011;4642;51.364;6.788;2023-10-31T11:17:25;4.80;;;2.77;;
9214;SDS011;4642;51.364;6.788;2023-10-31T11:19:56;4.63;;;2.60;;
9214;SDS011;4642;51.364;6.788;2023-10-31T11:22:22;5.03;;;2.77;;
9214;SDS011;4642;51.364;6.788;2023-10-31T11:24:51;7.20;;;2.90;;
9214;SDS011;4642;51.364;6.788;2023-10-31T11:27:17;5.50;;;2.80;;
9214;SDS011;4642;51.364;6.788;2023-10-31T11:29:43;6.23;;;2.40;;
9214;SDS011;4642;51.364;6.788;2023-10-31T11:32:10;6.73;;;2.53;;
9214;SDS011;4642;51.364;6.788;2023-10-31T11:34:39;7.07;;;2.20;;
9214;SDS011;4642;51.364;6.788;2023-10-31T11:40:34;4.53;;;2.00;;
9214;SDS011;4642;51.364;6.788;2023-10-31T11:42:37;5.00;;;2.10;;
9214;SDS011;4642;51.364;6.788;2023-10-31T11:45:03;5.50;;;1.93;;
9214;SDS011;4642;51.364;6.788;2023-10-31T11:47:48;5.17;;;1.73;;
9214;SDS011;4642;51.364;6.788;2023-10-31T11:50:15;5.20;;;1.90;;
9214;SDS011;4642;51.364;6.788;2023-10-31T11:52:41;3.63;;;1.80;;
9214;SDS011;4642;51.364;6.788;2023-10-31T11:55:13;5.17;;;1.70;;
9214;SDS011;4642;51.364;6.788;2023-10-31T11:57:39;3.73;;;1.60;;
9214;SDS011;4642;51.364;6.788;2023-10-31T12:00:05;7.40;;;1.83;;
9214;SDS011;4642;51.364;6.788;2023-10-31T12:02:32;5.37;;;2.00;;
9214;SDS011;4642;51.364;6.788;2023-10-31T12:05:10;2.80;;;1.97;;
9214;SDS011;4642;51.364;6.788;2023-10-31T12:07:46;6.70;;;2.30;;
9214;SDS011;4642;51.364;6.788;2023-10-31T12:10:12;4.40;;;1.90;;
9214;SDS011;4642;51.364;6.788;2023-10-31T12:12:38;4.27;;;1.63;;
9214;SDS011;4642;51.364;6.788;2023-10-31T12:15:07;2.57;;;1.53;;
9214;SDS011;4642;51.364;6.788;2023-10-31T12:17:33;5.00;;;1.73;;
9214;SDS011;4642;51.364;6.788;2023-10-31T12:20:06;5.23;;;1.77;;
9214;SDS011;4642;51.364;6.788;2023-10-31T12:22:33;2.30;;;1.93;;
9214;SDS011;4642;51.364;6.788;2023-10-31T12:25:06;2.73;;;1.73;;
9214;SDS011;4642;51.364;6.788;2023-10-31T12:27:46;6.10;;;1.80;;
9214;SDS011;4642;51.364;6.788;2023-10-31T12:30:14;2.77;;;1.70;;
9214;SDS011;4642;51.364;6.788;2023-10-31T12:32:42;6.13;;;1.43;;
9214;SDS011;4642;51.364;6.788;2023-10-31T12:35:10;3.67;;;1.40;;
9214;SDS011;4642;51.364;6.788;2023-10-31T12:37:45;1.93;;;1.30;;
9214;SDS011;4642;51.364;6.788;2023-10-31T12:40:13;2.50;;;1.53;;
9214;SDS011;4642;51.364;6.788;2023-10-31T12:42:42;2.10;;;1.20;;
9214;SDS011;4642;51.364;6.788;2023-10-31T12:45:08;1.70;;;1.30;;
9214;SDS011;4642;51.364;6.788;2023-10-31T12:47:34;3.50;;;1.30;;
9214;SDS011;4642;51.364;6.788;2023-10-31T12:50:12;2.97;;;1.40;;
9214;SDS011;4642;51.364;6.788;2023-10-31T12:52:46;3.70;;;1.20;;
9214;SDS011;4642;51.364;6.788;2023-10-31T12:55:19;3.13;;;1.17;;
9214;SDS011;4642;51.364;6.788;2023-10-31T12:58:04;4.70;;;1.10;;
9214;SDS011;4642;51.364;6.788;2023-10-31T13:00:33;5.07;;;1.30;;
9214;SDS011;4642;51.364;6.788;2023-10-31T13:03:03;2.80;;;1.10;;
9214;SDS011;4642;51.364;6.788;2023-10-31T13:05:30;3.37;;;1.20;;
9214;SDS011;4642;51.364;6.788;2023-10-31T13:07:56;3.53;;;1.10;;
9214;SDS011;4642;51.364;6.788;2023-10-31T13:10:26;3.87;;;1.20;;
9214;SDS011;4642;51.364;6.788;2023-10-31T13:12:53;6.43;;;1.63;;
9214;SDS011;4642;51.364;6.788;2023-10-31T13:15:20;2.67;;;1.53;;
9214;SDS011;4642;51.364;6.788;2023-10-31T13:17:49;2.90;;;1.30;;
9214;SDS011;4642;51.364;6.788;2023-10-31T13:20:16;4.83;;;1.50;;
9214;SDS011;4642;51.364;6.788;2023-10-31T13:22:43;2.73;;;1.50;;
9214;SDS011;4642;51.364;6.788;2023-10-31T13:25:10;5.03;;;1.67;;
9214;SDS011;4642;51.364;6.788;2023-10-31T13:27:37;3.03;;;1.47;;
9214;SDS011;4642;51.364;6.788;2023-10-31T13:30:05;5.70;;;1.53;;
9214;SDS011;4642;51.364;6.788;2023-10-31T13:32:32;3.77;;;1.50;;
9214;SDS011;4642;51.364;6.788;2023-10-31T13:34:59;3.30;;;1.90;;
9214;SDS011;4642;51.364;6.788;2023-10-31T13:37:24;3.47;;;1.70;;
9214;SDS011;4642;51.364;6.788;2023-10-31T13:39:50;2.67;;;1.80;;
9214;SDS011;4642;51.364;6.788;2023-10-31T13:42:16;3.97;;;1.60;;
9214;SDS011;4642;51.364;6.788;2023-10-31T13:44:42;7.07;;;2.10;;
9214;SDS011;4642;51.364;6.788;2023-10-31T13:47:08;4.43;;;1.97;;
9214;SDS011;4642;51.364;6.788;2023-10-31T13:49:34;3.33;;;1.87;;
9214;SDS011;4642;51.364;6.788;2023-10-31T13:52:00;4.07;;;2.00;;
9214;SDS011;4642;51.364;6.788;2023-10-31T13:54:25;4.60;;;1.93;;
9214;SDS011;4642;51.364;6.788;2023-10-31T13:56:51;4.50;;;1.53;;
9214;SDS011;4642;51.364;6.788;2023-10-31T13:59:17;2.30;;;1.77;;
9214;SDS011;4642;51.364;6.788;2023-10-31T14:01:43;3.23;;;1.77;;
9214;SDS011;4642;51.364;6.788;2023-10-31T14:04:12;3.80;;;1.90;;
9214;SDS011;4642;51.364;6.788;2023-10-31T14:06:39;2.93;;;1.70;;
9214;SDS011;4642;51.364;6.788;2023-10-31T14:09:05;7.77;;;1.80;;
9214;SDS011;4642;51.364;6.788;2023-10-31T14:11:32;3.00;;;1.60;;
9214;SDS011;4642;51.364;6.788;2023-10-31T14:14:01;1.97;;;1.50;;
9214;SDS011;4642;51.364;6.788;2023-10-31T14:16:41;2.60;;;1.50;;
9214;SDS011;4642;51.364;6.788;2023-10-31T14:19:09;3.70;;;1.50;;
9214;SDS011;4642;51.364;6.788;2023-10-31T14:21:35;4.87;;;1.67;;
9214;SDS011;4642;51.364;6.788;2023-10-31T14:24:02;5.73;;;1.67;;
9214;SDS011;4642;51.364;6.788;2023-10-31T14:26:28;4.23;;;1.63;;
9214;SDS011;4642;51.364;6.788;2023-10-31T14:28:54;3.67;;;1.50;;
9214;SDS011;4642;51.364;6.788;2023-10-31T14:31:20;6.43;;;1.50;;
9214;SDS011;4642;51.364;6.788;2023-10-31T14:33:46;3.40;;;1.47;;
9214;SDS011;4642;51.364;6.788;2023-10-31T14:36:12;3.33;;;1.17;;
9214;SDS011;4642;51.364;6.788;2023-10-31T14:38:39;6.53;;;1.13;;
9214;SDS011;4642;51.364;6.788;2023-10-31T14:41:05;2.50;;;1.07;;
9214;SDS011;4642;51.364;6.788;2023-10-31T14:43:32;4.63;;;1.10;;
9214;SDS011;4642;51.364;6.788;2023-10-31T14:45:58;5.10;;;1.13;;
9214;SDS011;4642;51.364;6.788;2023-10-31T14:48:24;4.03;;;1.20;;
9214;SDS011;4642;51.364;6.788;2023-10-31T14:50:50;2.97;;;1.23;;
9214;SDS011;4642;51.364;6.788;2023-10-31T14:53:16;4.27;;;1.30;;
9214;SDS011;4642;51.364;6.788;2023-10-31T14:55:44;8.20;;;1.23;;
9214;SDS011;4642;51.364;6.788;2023-10-31T14:58:09;3.40;;;1.00;;
9214;SDS011;4642;51.364;6.788;2023-10-31T15:00:35;3.60;;;1.13;;
9214;SDS011;4642;51.364;6.788;2023-10-31T15:03:01;2.13;;;1.13;;
9214;SDS011;4642;51.364;6.788;2023-10-31T15:05:27;3.87;;;1.20;;
9214;SDS011;4642;51.364;6.788;2023-10-31T15:07:52;5.93;;;1.47;;
9214;SDS011;4642;51.364;6.788;2023-10-31T15:10:21;4.53;;;1.40;;